Accueil
METAR-TAF:

METAR-TAF

Aéroports :

Konya, Turquie

latitude: 37-58N, longitude: 032-33E, altitude: 1032 m

Observation

Le bulletin a été fait il y a 57 minutes, à 07:50 UTC
Vent 2 kt de direction variable
Température 2°C
Humidité 75%
Pression 1025 hPa
Visibilité 10 km ou plus
Quelques nuages à une hauteur de 4000 ft
Nuages fragmentés à une hauteur de 10000 ft

METAR: LTAN 270750Z VRB02KT 9999 FEW040 BKN100 02/M02 Q1025 NOSIG

Heure: 11:47 (08:47 UTC)

Prévision

Le bulletin a été fait il y a 1 heure et 7 minutes, à 07:40 UTC
Prévision valable du 27 à 09 UTC au 27 à 18 UTC
Vent 2 kt de direction variable
Visibilité 10 km ou plus
Quelques nuages à une hauteur de 4000 ft
Nuages fragmentés à une hauteur de 10000 ft

TAF: LTAN 270740Z 2709/2718 VRB02KT 9999 FEW040 BKN100

Observations et prévisions météorologiques de plus de 4000 aéroports (messages METAR et TAF).

Les stations disponibles sont représentées par des disques jaunes et rouges sur la carte.

Passer la souris dessus pour voir le nom de la station.

Cliquer dessus pour voir les observations et prévisions météorologiques.

Pour changer de carte: cliquez sur les boutons verts avec une croix noire pour zoomer, sur le bouton vert avec un tiret pour effectuer un zoom arrière, ou sur les flèches vertes pour les cartes adjacentes.


METAR-TAF: